TAP1439 GMMN-LPPT
Flight info
| Callsign | TAP1439 |
|---|---|
| Flight time | 0h 59m |
| Altitude | 38000 |
| Route | LAKAM UR722 AMSEL DCT VATZI |
| Aircraft | A320/M-SDE3FGHIRWY/LB1 |
Departure
| Time | 2026-05-04 08:16 |
|---|---|
| Airport | Mohammed V International Airport (GMMN) |
Arrival
| Time | 2026-05-04 09:15 |
|---|---|
| Airport | Lisbon Humberto Delgado Airport (LPPT) |
| Time | Latitude | Longitude | Altitude | Speed | Heading |
|---|---|---|---|---|---|
| 2026-05-04 07:39 | 33.37269 | -7.58237 | 653 ft | 0 kts | 75° |
| 2026-05-04 08:06 | 33.37267 | -7.58247 | 653 ft | 4 kts | 77° |
| 2026-05-04 08:06 | 33.37263 | -7.58280 | 653 ft | 4 kts | 92° |
| 2026-05-04 08:08 | 33.37284 | -7.58331 | 655 ft | 0 kts | 163° |
| 2026-05-04 08:10 | 33.36908 | -7.58396 | 653 ft | 15 kts | 255° |
| 2026-05-04 08:11 | 33.36844 | -7.58461 | 653 ft | 12 kts | 171° |
| 2026-05-04 08:11 | 33.36651 | -7.58399 | 653 ft | 18 kts | 166° |
| 2026-05-04 08:11 | 33.36514 | -7.58352 | 653 ft | 23 kts | 162° |
| 2026-05-04 08:12 | 33.36349 | -7.58288 | 652 ft | 27 kts | 165° |
| 2026-05-04 08:12 | 33.36153 | -7.58230 | 652 ft | 31 kts | 167° |
| 2026-05-04 08:12 | 33.35939 | -7.58154 | 652 ft | 33 kts | 162° |
| 2026-05-04 08:12 | 33.35722 | -7.58076 | 652 ft | 33 kts | 164° |
| 2026-05-04 08:13 | 33.35505 | -7.58006 | 652 ft | 30 kts | 165° |
| 2026-05-04 08:13 | 33.35369 | -7.57957 | 652 ft | 16 kts | 162° |
| 2026-05-04 08:13 | 33.35275 | -7.57958 | 653 ft | 13 kts | 214° |
| 2026-05-04 08:13 | 33.35245 | -7.58045 | 653 ft | 11 kts | 256° |
| 2026-05-04 08:14 | 33.35227 | -7.58125 | 653 ft | 9 kts | 254° |
| 2026-05-04 08:14 | 33.35213 | -7.58185 | 654 ft | 6 kts | 254° |
| 2026-05-04 08:14 | 33.35205 | -7.58233 | 654 ft | 5 kts | 272° |
| 2026-05-04 08:16 | 33.40101 | -7.59969 | 2446 ft | 172 kts | 340° |
| 2026-05-04 08:16 | 33.41185 | -7.60588 | 3081 ft | 174 kts | 332° |
| 2026-05-04 08:16 | 33.42190 | -7.61401 | 3712 ft | 175 kts | 324° |
| 2026-05-04 08:17 | 33.43144 | -7.62402 | 4101 ft | 194 kts | 316° |
| 2026-05-04 08:17 | 33.44063 | -7.63716 | 4339 ft | 221 kts | 306° |
| 2026-05-04 08:17 | 33.44960 | -7.65317 | 4792 ft | 238 kts | 304° |
| 2026-05-04 08:17 | 33.45890 | -7.66994 | 5555 ft | 243 kts | 304° |
| 2026-05-04 08:19 | 33.52681 | -7.79263 | 11414 ft | 262 kts | 301° |
| 2026-05-04 08:19 | 33.53695 | -7.81080 | 12175 ft | 263 kts | 300° |
| 2026-05-04 08:20 | 33.54715 | -7.82912 | 12943 ft | 265 kts | 300° |
| 2026-05-04 08:20 | 33.55741 | -7.84759 | 13702 ft | 267 kts | 300° |
| 2026-05-04 08:20 | 33.56789 | -7.86612 | 14395 ft | 271 kts | 304° |
| 2026-05-04 08:20 | 33.58220 | -7.88128 | 15046 ft | 282 kts | 325° |
| 2026-05-04 08:21 | 33.60116 | -7.88940 | 15520 ft | 305 kts | 347° |
| 2026-05-04 08:21 | 33.62338 | -7.88770 | 15657 ft | 337 kts | 7° |
| 2026-05-04 08:21 | 33.64703 | -7.88141 | 15778 ft | 359 kts | 8° |
| 2026-05-04 08:21 | 33.67192 | -7.87463 | 16068 ft | 373 kts | 8° |
| 2026-05-04 08:22 | 33.69748 | -7.86765 | 16609 ft | 379 kts | 8° |
| 2026-05-04 08:22 | 33.72336 | -7.86062 | 17242 ft | 383 kts | 7° |
| 2026-05-04 08:24 | 33.91126 | -7.81137 | 21093 ft | 407 kts | 6° |
| 2026-05-04 08:24 | 33.93905 | -7.80400 | 21634 ft | 410 kts | 6° |
| 2026-05-04 08:24 | 33.96699 | -7.79660 | 22173 ft | 413 kts | 6° |
| 2026-05-04 08:24 | 33.99517 | -7.78916 | 22742 ft | 416 kts | 6° |
| 2026-05-04 08:25 | 34.02352 | -7.78170 | 23270 ft | 419 kts | 6° |
| 2026-05-04 08:25 | 34.05212 | -7.77414 | 23762 ft | 422 kts | 6° |
| 2026-05-04 08:25 | 34.08089 | -7.76653 | 24173 ft | 425 kts | 5° |
| 2026-05-04 08:25 | 34.10991 | -7.75888 | 24580 ft | 428 kts | 5° |
| 2026-05-04 08:26 | 34.13912 | -7.75117 | 24979 ft | 431 kts | 5° |
| 2026-05-04 08:27 | 34.34637 | -7.74943 | 27622 ft | 432 kts | 348° |
| 2026-05-04 08:28 | 34.37646 | -7.75157 | 27980 ft | 434 kts | 348° |
| 2026-05-04 08:28 | 34.40668 | -7.75371 | 28325 ft | 436 kts | 347° |
| 2026-05-04 08:28 | 34.43710 | -7.75584 | 28667 ft | 439 kts | 347° |
| 2026-05-04 08:28 | 34.46764 | -7.75796 | 29004 ft | 441 kts | 347° |
| 2026-05-04 08:29 | 34.49838 | -7.76009 | 29370 ft | 443 kts | 347° |
| 2026-05-04 08:29 | 34.52920 | -7.76221 | 29717 ft | 445 kts | 347° |
| 2026-05-04 08:29 | 34.55976 | -7.76430 | 30034 ft | 447 kts | 347° |
| 2026-05-04 08:31 | 34.77984 | -7.77979 | 31900 ft | 455 kts | 347° |
| 2026-05-04 08:33 | 34.99965 | -7.79849 | 34186 ft | 450 kts | 347° |
| 2026-05-04 08:33 | 35.03091 | -7.80104 | 34465 ft | 450 kts | 347° |
| 2026-05-04 08:35 | 35.23847 | -7.81845 | 36016 ft | 449 kts | 347° |
| 2026-05-04 08:35 | 35.26962 | -7.82104 | 36263 ft | 448 kts | 347° |
| 2026-05-04 08:35 | 35.30073 | -7.82365 | 36473 ft | 448 kts | 347° |
| 2026-05-04 08:35 | 35.33181 | -7.82628 | 36670 ft | 448 kts | 347° |
| 2026-05-04 08:37 | 35.51830 | -7.84270 | 37780 ft | 448 kts | 346° |
| 2026-05-04 08:37 | 35.54940 | -7.84553 | 37932 ft | 448 kts | 346° |
| 2026-05-04 08:37 | 35.58046 | -7.84837 | 38094 ft | 448 kts | 346° |
| 2026-05-04 08:38 | 35.61157 | -7.85118 | 38125 ft | 448 kts | 346° |
| 2026-05-04 08:38 | 35.67373 | -7.85674 | 38120 ft | 448 kts | 346° |
| 2026-05-04 08:40 | 35.92167 | -7.87920 | 38126 ft | 447 kts | 346° |
| 2026-05-04 08:41 | 35.98144 | -7.89320 | 38126 ft | 427 kts | 330° |
| 2026-05-04 08:41 | 36.03473 | -7.92313 | 38147 ft | 420 kts | 325° |
| 2026-05-04 08:42 | 36.08747 | -7.95427 | 38134 ft | 420 kts | 325° |
| 2026-05-04 08:42 | 36.14031 | -7.98541 | 38127 ft | 421 kts | 325° |
| 2026-05-04 08:43 | 36.19315 | -8.01658 | 38117 ft | 421 kts | 325° |
| 2026-05-04 08:43 | 36.24605 | -8.04779 | 38153 ft | 421 kts | 325° |
| 2026-05-04 08:44 | 36.29890 | -8.07906 | 38145 ft | 421 kts | 325° |
| 2026-05-04 08:46 | 36.51047 | -8.20475 | 38127 ft | 420 kts | 325° |
| 2026-05-04 08:46 | 36.56321 | -8.23615 | 38126 ft | 420 kts | 325° |
| 2026-05-04 08:47 | 36.61594 | -8.26768 | 38127 ft | 420 kts | 325° |
| 2026-05-04 08:47 | 36.66864 | -8.29922 | 38129 ft | 420 kts | 325° |
| 2026-05-04 08:48 | 36.72104 | -8.33060 | 38159 ft | 421 kts | 325° |
| 2026-05-04 08:48 | 36.77416 | -8.36254 | 37839 ft | 429 kts | 326° |
| 2026-05-04 08:48 | 36.80111 | -8.37875 | 37563 ft | 430 kts | 326° |
| 2026-05-04 08:49 | 36.82800 | -8.39486 | 37303 ft | 428 kts | 326° |
| 2026-05-04 08:50 | 36.98636 | -8.49013 | 35817 ft | 414 kts | 326° |
| 2026-05-04 08:50 | 37.01219 | -8.50574 | 35578 ft | 412 kts | 326° |
| 2026-05-04 08:51 | 37.03787 | -8.52129 | 35336 ft | 409 kts | 326° |
| 2026-05-04 08:51 | 37.06343 | -8.53681 | 35092 ft | 407 kts | 326° |
| 2026-05-04 08:51 | 37.08873 | -8.55215 | 34700 ft | 402 kts | 326° |
| 2026-05-04 08:51 | 37.11385 | -8.56737 | 34217 ft | 399 kts | 326° |
| 2026-05-04 08:52 | 37.13880 | -8.58245 | 33683 ft | 396 kts | 326° |
| 2026-05-04 08:52 | 37.16347 | -8.59737 | 33217 ft | 392 kts | 326° |
| 2026-05-04 08:52 | 37.18792 | -8.61220 | 32735 ft | 389 kts | 325° |
| 2026-05-04 08:52 | 37.21213 | -8.62688 | 32273 ft | 385 kts | 325° |
| 2026-05-04 08:53 | 37.23608 | -8.64143 | 31826 ft | 381 kts | 325° |
| 2026-05-04 08:54 | 37.39733 | -8.73996 | 28846 ft | 354 kts | 326° |
| 2026-05-04 08:55 | 37.41938 | -8.75341 | 28432 ft | 350 kts | 326° |
| 2026-05-04 08:55 | 37.44120 | -8.76670 | 28048 ft | 346 kts | 326° |
| 2026-05-04 08:55 | 37.46277 | -8.77972 | 27587 ft | 345 kts | 328° |
| 2026-05-04 08:55 | 37.48604 | -8.79018 | 26617 ft | 363 kts | 333° |
| 2026-05-04 08:57 | 37.66065 | -8.85779 | 22061 ft | 377 kts | 336° |
| 2026-05-04 09:01 | 38.00610 | -8.99423 | 14611 ft | 337 kts | 339° |
| 2026-05-04 09:01 | 38.02808 | -9.00292 | 14485 ft | 325 kts | 339° |
| 2026-05-04 09:01 | 38.04943 | -9.01138 | 14214 ft | 319 kts | 338° |
| 2026-05-04 09:01 | 38.07048 | -9.01976 | 13800 ft | 314 kts | 338° |
| 2026-05-04 09:02 | 38.09116 | -9.02802 | 13008 ft | 310 kts | 339° |
| 2026-05-04 09:02 | 38.11145 | -9.03612 | 12515 ft | 299 kts | 339° |
| 2026-05-04 09:02 | 38.13084 | -9.04383 | 12145 ft | 285 kts | 339° |
| 2026-05-04 09:02 | 38.14933 | -9.05117 | 11818 ft | 273 kts | 339° |
| 2026-05-04 09:03 | 38.16738 | -9.05835 | 11472 ft | 271 kts | 339° |
| 2026-05-04 09:03 | 38.18532 | -9.06551 | 11128 ft | 270 kts | 339° |
| 2026-05-04 09:03 | 38.20322 | -9.07268 | 10787 ft | 270 kts | 339° |
| 2026-05-04 09:03 | 38.22112 | -9.07987 | 10431 ft | 269 kts | 339° |
| 2026-05-04 09:04 | 38.23899 | -9.08706 | 10031 ft | 270 kts | 339° |
| 2026-05-04 09:04 | 38.25689 | -9.09429 | 9684 ft | 268 kts | 339° |
| 2026-05-04 09:04 | 38.27441 | -9.10132 | 9488 ft | 259 kts | 340° |
| 2026-05-04 09:04 | 38.29133 | -9.10807 | 9282 ft | 252 kts | 340° |
| 2026-05-04 09:05 | 38.30793 | -9.11474 | 8952 ft | 250 kts | 340° |
| 2026-05-04 09:05 | 38.32446 | -9.12139 | 8584 ft | 249 kts | 340° |
| 2026-05-04 09:05 | 38.34084 | -9.12795 | 8241 ft | 242 kts | 341° |
| 2026-05-04 09:05 | 38.35622 | -9.13554 | 7783 ft | 234 kts | 332° |
| 2026-05-04 09:06 | 38.37041 | -9.14504 | 7393 ft | 233 kts | 330° |
| 2026-05-04 09:07 | 38.46709 | -9.21485 | 4971 ft | 223 kts | 330° |
| 2026-05-04 09:08 | 38.48055 | -9.22462 | 4620 ft | 222 kts | 330° |
| 2026-05-04 09:08 | 38.49445 | -9.23302 | 4273 ft | 220 kts | 348° |
| 2026-05-04 09:08 | 38.50928 | -9.23323 | 4148 ft | 210 kts | 6° |
| 2026-05-04 09:08 | 38.52352 | -9.23075 | 3925 ft | 205 kts | 5° |
| 2026-05-04 09:09 | 38.53760 | -9.22845 | 3651 ft | 204 kts | 5° |
| 2026-05-04 09:09 | 38.55166 | -9.22614 | 3429 ft | 203 kts | 5° |
| 2026-05-04 09:09 | 38.56554 | -9.22385 | 3240 ft | 198 kts | 5° |
| 2026-05-04 09:09 | 38.57892 | -9.22161 | 3152 ft | 189 kts | 6° |
| 2026-05-04 09:10 | 38.59154 | -9.21948 | 3062 ft | 176 kts | 6° |
| 2026-05-04 09:10 | 38.60312 | -9.21751 | 3006 ft | 163 kts | 6° |
| 2026-05-04 09:10 | 38.61418 | -9.21563 | 3025 ft | 159 kts | 6° |
| 2026-05-04 09:10 | 38.62516 | -9.21380 | 3027 ft | 159 kts | 5° |
| 2026-05-04 09:11 | 38.63606 | -9.21170 | 3009 ft | 159 kts | 13° |
| 2026-05-04 09:11 | 38.64638 | -9.20731 | 2884 ft | 159 kts | 18° |
| 2026-05-04 09:11 | 38.65665 | -9.20222 | 2699 ft | 159 kts | 19° |
| 2026-05-04 09:11 | 38.66680 | -9.19697 | 2499 ft | 158 kts | 19° |
| 2026-05-04 09:12 | 38.67693 | -9.19164 | 2270 ft | 157 kts | 20° |
| 2026-05-04 09:12 | 38.68660 | -9.18649 | 2074 ft | 144 kts | 19° |
| 2026-05-04 09:14 | 38.74722 | -9.15409 | 792 ft | 133 kts | 20° |
| 2026-05-04 09:14 | 38.75572 | -9.14962 | 633 ft | 132 kts | 20° |
| 2026-05-04 09:14 | 38.76420 | -9.14509 | 451 ft | 132 kts | 21° |
| 2026-05-04 09:14 | 38.77251 | -9.14069 | 365 ft | 119 kts | 24° |
| 2026-05-04 09:15 | 38.77865 | -9.13740 | 365 ft | 78 kts | 23° |
| 2026-05-04 09:15 | 38.78235 | -9.13532 | 368 ft | 32 kts | 26° |
| 2026-05-04 09:15 | 38.78346 | -9.13383 | 363 ft | 14 kts | 47° |
| 2026-05-04 09:15 | 38.78374 | -9.13295 | 364 ft | 8 kts | 108° |
| 2026-05-04 09:17 | 38.77832 | -9.13363 | 347 ft | 4 kts | 167° |
| 2026-05-04 09:18 | 38.77830 | -9.13362 | 347 ft | 0 kts | 167° |
| 2026-05-04 09:18 | 38.77782 | -9.13350 | 345 ft | 12 kts | 168° |
| 2026-05-04 09:18 | 38.77741 | -9.13259 | 336 ft | 16 kts | 78° |
| 2026-05-04 09:18 | 38.77767 | -9.13115 | 337 ft | 18 kts | 77° |
| 2026-05-04 09:19 | 38.77828 | -9.12979 | 328 ft | 17 kts | 36° |
| 2026-05-04 09:19 | 38.77913 | -9.12911 | 331 ft | 15 kts | 32° |
| 2026-05-04 09:19 | 38.78004 | -9.12836 | 331 ft | 15 kts | 33° |
| 2026-05-04 09:19 | 38.78044 | -9.12840 | 329 ft | 5 kts | 297° |
| 2026-05-04 09:20 | 38.78056 | -9.12875 | 328 ft | 4 kts | 305° |
| 2026-05-04 09:20 | 38.78062 | -9.12885 | 330 ft | 0 kts | 304° |